createdAt,value
2022-11-17T00:02:09.192Z,4.07
2022-11-17T00:05:10.890Z,6.50
2022-11-17T00:08:12.298Z,5.17
2022-11-17T00:11:13.976Z,8.10
2022-11-17T00:14:33.522Z,5.17
2022-11-17T00:17:34.985Z,4.23
2022-11-17T00:20:59.076Z,4.97
2022-11-17T00:24:00.597Z,6.53
2022-11-17T00:27:02.072Z,4.10
2022-11-17T00:30:04.595Z,6.00
2022-11-17T00:33:24.746Z,4.07
2022-11-17T00:36:26.400Z,4.13
2022-11-17T00:39:27.854Z,5.37
2022-11-17T00:42:29.261Z,5.13
2022-11-17T00:45:30.657Z,6.23
2022-11-17T00:48:32.095Z,5.63
2022-11-17T00:51:34.239Z,8.03
2022-11-17T00:54:35.635Z,8.67
2022-11-17T00:57:37.024Z,5.13
2022-11-17T01:00:38.419Z,7.97
2022-11-17T01:03:39.849Z,5.07
2022-11-17T01:06:46.388Z,5.33
2022-11-17T01:09:47.777Z,5.70
2022-11-17T01:12:49.173Z,5.60
2022-11-17T01:15:50.547Z,6.13
2022-11-17T01:18:53.228Z,6.97
2022-11-17T01:21:54.684Z,7.33
2022-11-17T01:24:56.060Z,4.03
2022-11-17T01:27:57.459Z,4.27
2022-11-17T01:31:05.705Z,5.80
2022-11-17T01:34:07.744Z,5.40
2022-11-17T01:37:21.388Z,3.70
2022-11-17T01:40:23.160Z,6.20
2022-11-17T01:43:43.351Z,5.43
2022-11-17T01:46:44.898Z,7.30
2022-11-17T01:49:47.536Z,5.10
2022-11-17T01:52:50.941Z,5.17
2022-11-17T01:55:57.028Z,7.07
2022-11-17T01:59:05.404Z,6.37
2022-11-17T02:02:07.406Z,4.23
2022-11-17T02:05:24.384Z,5.00
2022-11-17T02:08:29.057Z,4.13
2022-11-17T02:11:35.936Z,4.47
2022-11-17T02:14:38.968Z,3.93
2022-11-17T02:17:44.026Z,5.33
2022-11-17T02:21:10.753Z,3.47
2022-11-17T02:24:30.613Z,5.47
2022-11-17T02:28:03.324Z,4.47
2022-11-17T02:31:29.696Z,4.43
2022-11-17T02:35:02.629Z,3.70
2022-11-17T02:38:14.324Z,4.23
2022-11-17T02:41:22.911Z,3.00
2022-11-17T02:44:46.305Z,5.97
2022-11-17T02:47:50.602Z,5.60
2022-11-17T02:50:53.648Z,7.80
2022-11-17T02:53:57.534Z,3.53
2022-11-17T02:56:59.019Z,3.87
2022-11-17T03:00:06.972Z,4.50
2022-11-17T03:03:49.888Z,4.47
2022-11-17T03:07:18.498Z,2.80
2022-11-17T03:10:38.069Z,6.00
2022-11-17T03:14:11.901Z,3.80
2022-11-17T03:17:29.742Z,4.27
2022-11-17T03:20:40.595Z,2.73
2022-11-17T03:23:51.210Z,3.13
2022-11-17T03:26:57.804Z,3.07
2022-11-17T03:30:06.369Z,3.93
2022-11-17T03:33:15.195Z,3.83
2022-11-17T03:36:22.276Z,3.23
2022-11-17T03:39:35.765Z,3.07
2022-11-17T03:42:42.037Z,3.97
2022-11-17T03:45:50.827Z,4.00
2022-11-17T03:49:17.431Z,2.43
2022-11-17T03:52:19.883Z,4.53
2022-11-17T03:55:27.482Z,3.43
2022-11-17T03:58:34.737Z,3.47
2022-11-17T04:01:37.340Z,4.63
2022-11-17T04:04:57.157Z,3.40
2022-11-17T04:07:58.538Z,3.77
2022-11-17T04:11:18.672Z,3.33
2022-11-17T04:14:38.902Z,3.70
2022-11-17T04:17:40.680Z,3.17
2022-11-17T04:20:42.876Z,2.47
2022-11-17T04:23:44.389Z,2.17
2022-11-17T04:27:04.551Z,3.53
2022-11-17T04:30:06.308Z,3.87
2022-11-17T04:33:07.774Z,2.23
2022-11-17T04:36:10.902Z,3.00
2022-11-17T04:39:14.005Z,4.37
2022-11-17T04:42:15.380Z,3.90
2022-11-17T04:45:16.772Z,3.37
2022-11-17T04:48:18.159Z,2.00
2022-11-17T04:51:20.693Z,2.67
2022-11-17T04:54:24.656Z,7.07
2022-11-17T04:57:26.095Z,2.63
2022-11-17T05:00:27.493Z,2.67
2022-11-17T05:03:28.878Z,2.20
2022-11-17T05:06:37.683Z,4.80
2022-11-17T05:09:39.209Z,2.17
2022-11-17T05:12:59.183Z,3.80
2022-11-17T05:16:19.143Z,5.77
2022-11-17T05:19:23.638Z,3.03
2022-11-17T05:22:43.731Z,4.43
2022-11-17T05:25:45.111Z,2.50
2022-11-17T05:28:46.581Z,3.70
2022-11-17T05:31:48.649Z,6.17
2022-11-17T05:34:50.099Z,2.97
2022-11-17T05:37:51.561Z,3.20
2022-11-17T05:40:52.932Z,3.00
2022-11-17T05:43:55.273Z,3.07
2022-11-17T05:46:56.673Z,4.53
2022-11-17T05:49:58.073Z,2.57
2022-11-17T05:52:59.476Z,3.40
2022-11-17T05:56:09.927Z,2.20
2022-11-17T05:59:17.372Z,2.43
2022-11-17T06:02:31.962Z,2.37
2022-11-17T06:05:33.704Z,3.10
2022-11-17T06:08:36.488Z,3.83
2022-11-17T06:11:37.876Z,2.77
2022-11-17T06:14:39.727Z,5.40
2022-11-17T06:17:55.005Z,2.43
2022-11-17T06:20:56.504Z,2.97
2022-11-17T06:24:00.081Z,3.27
2022-11-17T06:27:01.625Z,2.80
2022-11-17T06:30:04.968Z,3.17
2022-11-17T06:33:09.965Z,2.23
2022-11-17T06:36:11.523Z,3.40
2022-11-17T06:39:12.963Z,2.93
2022-11-17T06:42:14.408Z,1.77
2022-11-17T06:45:15.970Z,2.47
2022-11-17T06:48:18.586Z,3.10
2022-11-17T06:51:19.977Z,2.50
2022-11-17T06:54:21.370Z,1.53
2022-11-17T06:57:22.783Z,4.50
2022-11-17T07:00:24.183Z,4.03
2022-11-17T07:03:25.628Z,2.40
2022-11-17T07:06:27.136Z,3.73
2022-11-17T07:09:28.541Z,4.17
2022-11-17T07:12:29.981Z,3.47
2022-11-17T07:15:31.715Z,2.57
2022-11-17T07:18:34.377Z,2.83
2022-11-17T07:21:36.332Z,2.03
2022-11-17T07:24:37.705Z,2.87
2022-11-17T07:27:39.121Z,2.37
2022-11-17T07:30:40.743Z,2.60
2022-11-17T07:33:42.190Z,2.90
2022-11-17T07:36:43.570Z,4.27
2022-11-17T07:39:44.952Z,3.57
2022-11-17T07:42:49.886Z,2.67
2022-11-17T07:45:53.153Z,5.93
2022-11-17T07:48:56.171Z,2.70
2022-11-17T07:51:57.713Z,5.87
2022-11-17T07:54:59.298Z,2.40
2022-11-17T07:58:01.567Z,4.43
2022-11-17T08:01:08.143Z,4.33
2022-11-17T08:04:09.945Z,3.20
2022-11-17T08:07:11.480Z,3.20
2022-11-17T08:10:13.648Z,2.87
2022-11-17T08:13:15.787Z,3.90
2022-11-17T08:16:17.593Z,5.27
2022-11-17T08:19:18.994Z,3.37
2022-11-17T08:22:20.383Z,2.63
2022-11-17T08:25:23.807Z,4.00
2022-11-17T08:28:25.229Z,9.03
2022-11-17T08:31:26.681Z,8.33
2022-11-17T08:34:28.068Z,4.67
2022-11-17T08:37:30.489Z,4.17
2022-11-17T08:40:31.900Z,4.40
2022-11-17T08:43:34.034Z,4.23
2022-11-17T08:46:35.462Z,4.97
2022-11-17T08:49:36.847Z,3.47
2022-11-17T08:52:38.280Z,2.17
2022-11-17T08:55:41.158Z,3.97
2022-11-17T08:58:44.459Z,2.60
2022-11-17T09:01:45.895Z,4.73
2022-11-17T09:04:47.687Z,3.27
2022-11-17T09:07:49.162Z,4.00
2022-11-17T09:10:51.541Z,5.07
2022-11-17T09:13:53.132Z,3.00
2022-11-17T09:16:54.576Z,6.57
2022-11-17T09:19:55.956Z,5.00
2022-11-17T09:22:59.983Z,6.63
2022-11-17T09:26:09.624Z,6.27
2022-11-17T09:29:11.526Z,3.47
2022-11-17T09:32:13.387Z,2.97
2022-11-17T09:35:14.998Z,7.60
2022-11-17T09:38:16.792Z,2.87
2022-11-17T09:41:26.385Z,4.77
2022-11-17T09:44:39.709Z,3.47
2022-11-17T09:47:45.981Z,4.43
2022-11-17T09:50:49.982Z,6.17
2022-11-17T09:53:59.300Z,6.30
2022-11-17T09:57:01.149Z,4.30
2022-11-17T10:00:22.969Z,8.93
2022-11-17T10:03:29.444Z,4.87
2022-11-17T10:06:31.788Z,8.00
2022-11-17T10:09:38.321Z,4.67
2022-11-17T10:12:48.171Z,10.37
2022-11-17T10:15:54.111Z,5.90
2022-11-17T10:18:55.687Z,5.90
2022-11-17T10:22:02.980Z,8.40
2022-11-17T10:25:04.863Z,7.80
2022-11-17T10:28:09.052Z,7.60
2022-11-17T10:31:13.741Z,9.63
2022-11-17T10:34:41.175Z,6.73
2022-11-17T10:38:01.700Z,7.57
2022-11-17T10:41:03.452Z,9.73
2022-11-17T10:44:28.592Z,13.87
2022-11-17T10:47:31.851Z,10.97
2022-11-17T10:50:33.377Z,5.43
2022-11-17T10:53:45.560Z,5.87
2022-11-17T10:56:51.489Z,5.07
2022-11-17T10:59:57.646Z,6.30
2022-11-17T11:03:33.398Z,5.87
2022-11-17T11:06:35.741Z,9.53
2022-11-17T11:09:42.697Z,4.40
2022-11-17T11:13:13.207Z,4.93
2022-11-17T11:16:14.590Z,4.33
2022-11-17T11:19:19.340Z,3.13
2022-11-17T11:22:27.700Z,5.27
2022-11-17T11:25:41.384Z,4.87
2022-11-17T11:29:03.108Z,5.37
2022-11-17T11:32:29.309Z,4.40
2022-11-17T11:35:33.445Z,9.40
2022-11-17T11:38:58.035Z,3.10
2022-11-17T11:42:23.527Z,4.47
2022-11-17T11:45:58.998Z,5.20
2022-11-17T11:49:15.928Z,3.97
2022-11-17T11:52:31.034Z,5.70
2022-11-17T11:55:36.510Z,3.73
2022-11-17T11:59:12.524Z,5.30
2022-11-17T12:02:14.400Z,3.27
2022-11-17T12:05:32.198Z,4.83
2022-11-17T12:08:47.520Z,5.53
2022-11-17T12:12:00.377Z,3.60
2022-11-17T12:15:20.156Z,6.00
2022-11-17T12:18:21.513Z,4.27
2022-11-17T12:21:24.918Z,3.93
2022-11-17T12:24:40.190Z,4.50
2022-11-17T12:27:52.311Z,4.30
2022-11-17T12:30:56.355Z,8.30
2022-11-17T12:34:00.828Z,7.07
2022-11-17T12:37:15.493Z,7.57
2022-11-17T12:40:53.855Z,2.70
2022-11-17T12:44:33.991Z,4.13
2022-11-17T12:47:41.993Z,5.93
2022-11-17T12:51:13.913Z,6.67
2022-11-17T12:54:25.970Z,4.83
2022-11-17T12:57:32.052Z,3.53
2022-11-17T13:00:45.916Z,5.93
2022-11-17T13:03:57.771Z,5.37
2022-11-17T13:07:07.478Z,3.80
2022-11-17T13:10:27.367Z,5.20
2022-11-17T13:13:29.056Z,5.00
2022-11-17T13:16:30.745Z,8.53
2022-11-17T13:19:39.535Z,5.20
2022-11-17T13:22:42.224Z,3.73
2022-11-17T13:25:43.795Z,4.30
2022-11-17T13:28:46.304Z,6.07
2022-11-17T13:31:48.020Z,3.60
2022-11-17T13:34:52.728Z,5.20
2022-11-17T13:38:19.985Z,2.40
2022-11-17T13:41:24.569Z,5.33
2022-11-17T13:44:27.749Z,6.77
2022-11-17T13:47:38.327Z,8.13
2022-11-17T13:50:40.176Z,4.03
2022-11-17T13:53:43.735Z,5.23
2022-11-17T13:56:55.090Z,4.93
2022-11-17T13:59:58.503Z,4.97
2022-11-17T14:03:03.314Z,4.17
2022-11-17T14:06:08.167Z,3.20
2022-11-17T14:09:10.156Z,5.17
2022-11-17T14:12:12.242Z,6.37
2022-11-17T14:15:25.564Z,4.90
2022-11-17T14:18:36.608Z,3.10
2022-11-17T14:22:23.531Z,5.63
2022-11-17T14:25:30.228Z,4.37
2022-11-17T14:28:31.803Z,3.67
2022-11-17T14:31:33.383Z,4.90
2022-11-17T14:34:36.722Z,5.60
2022-11-17T14:37:38.133Z,5.60
2022-11-17T14:40:39.526Z,5.27
2022-11-17T14:43:40.908Z,5.10
2022-11-17T14:46:42.566Z,4.50
2022-11-17T14:49:44.079Z,5.50
2022-11-17T14:52:45.958Z,5.03
2022-11-17T14:55:47.549Z,9.03
2022-11-17T14:58:57.931Z,5.87
2022-11-17T15:01:59.391Z,11.43
2022-11-17T15:05:01.339Z,12.37
2022-11-17T15:08:03.147Z,8.10
2022-11-17T15:11:06.201Z,7.23
2022-11-17T15:14:08.020Z,7.43
2022-11-17T15:17:13.920Z,8.80
2022-11-17T15:20:16.364Z,6.17
2022-11-17T15:23:17.749Z,8.17
2022-11-17T15:26:23.219Z,8.27
2022-11-17T15:29:24.764Z,8.87
2022-11-17T15:32:26.478Z,9.23
2022-11-17T15:35:28.110Z,9.07
2022-11-17T15:38:30.384Z,7.03
2022-11-17T15:41:33.098Z,5.73
2022-11-17T15:44:34.666Z,4.87
2022-11-17T15:47:36.119Z,6.17
2022-11-17T15:50:37.622Z,4.83
2022-11-17T15:53:39.535Z,8.27
2022-11-17T15:56:40.928Z,6.10
2022-11-17T15:59:42.615Z,6.83
2022-11-17T16:02:44.051Z,6.13
2022-11-17T16:05:45.440Z,7.17
2022-11-17T16:08:46.859Z,6.33
2022-11-17T16:11:48.359Z,5.23
2022-11-17T16:14:49.788Z,13.37
2022-11-17T16:17:51.250Z,8.73
2022-11-17T16:20:52.989Z,6.50
2022-11-17T16:23:56.749Z,5.70
2022-11-17T16:26:58.162Z,6.60
2022-11-17T16:29:59.545Z,6.70
2022-11-17T16:33:00.985Z,6.90
2022-11-17T16:36:06.245Z,6.03
2022-11-17T16:39:11.649Z,5.87
2022-11-17T16:42:13.034Z,10.80
2022-11-17T16:45:14.537Z,10.80
2022-11-17T16:48:15.979Z,6.40
2022-11-17T16:51:20.311Z,6.50
2022-11-17T16:54:22.009Z,9.43
2022-11-17T16:57:23.385Z,9.67
2022-11-17T17:00:24.777Z,8.67
2022-11-17T17:03:27.222Z,8.40
2022-11-17T17:06:28.967Z,12.00
2022-11-17T17:09:30.771Z,10.10
2022-11-17T17:12:32.373Z,11.03
2022-11-17T17:15:33.829Z,10.87
2022-11-17T17:18:36.418Z,15.00
2022-11-17T17:21:39.290Z,10.40
2022-11-17T17:24:40.678Z,13.77
2022-11-17T17:27:42.067Z,17.53
2022-11-17T17:30:43.873Z,16.80
2022-11-17T17:33:45.582Z,13.20
2022-11-17T17:36:47.028Z,10.77
2022-11-17T17:39:48.423Z,10.70
2022-11-17T17:42:49.805Z,9.47
2022-11-17T17:45:51.333Z,8.43
2022-11-17T17:48:53.034Z,10.67
2022-11-17T17:51:54.422Z,8.53
2022-11-17T17:54:55.797Z,13.50
2022-11-17T17:57:57.184Z,8.17
2022-11-17T18:01:14.188Z,12.50
2022-11-17T18:04:16.756Z,9.60
2022-11-17T18:07:18.501Z,7.57
2022-11-17T18:10:19.933Z,10.93
2022-11-17T18:13:21.319Z,10.97
2022-11-17T18:16:28.166Z,12.23
2022-11-17T18:19:32.956Z,10.27
2022-11-17T18:22:34.783Z,12.63
2022-11-17T18:25:36.191Z,11.93
2022-11-17T18:28:39.699Z,11.30
2022-11-17T18:31:41.915Z,10.37
2022-11-17T18:34:43.357Z,13.07
2022-11-17T18:37:44.740Z,13.00
2022-11-17T18:40:46.168Z,15.67
2022-11-17T18:43:48.168Z,13.77
2022-11-17T18:46:49.591Z,11.30
2022-11-17T18:49:51.027Z,11.97
2022-11-17T18:52:52.490Z,18.27
2022-11-17T18:55:59.266Z,15.43
2022-11-17T18:59:01.255Z,15.33
2022-11-17T19:02:02.661Z,10.07
2022-11-17T19:05:04.235Z,12.10
2022-11-17T19:08:05.672Z,10.07
2022-11-17T19:11:09.283Z,14.27
2022-11-17T19:14:10.725Z,12.20
2022-11-17T19:17:12.176Z,12.67
2022-11-17T19:20:13.594Z,14.17
2022-11-17T19:23:15.075Z,14.20
2022-11-17T19:26:19.167Z,14.00
2022-11-17T19:29:21.168Z,12.40
2022-11-17T19:32:22.849Z,12.03
2022-11-17T19:35:24.545Z,11.47
2022-11-17T19:38:26.001Z,11.10
2022-11-17T19:41:29.240Z,10.67
2022-11-17T19:44:30.642Z,15.70
2022-11-17T19:47:32.028Z,11.60
2022-11-17T19:50:33.661Z,12.03
2022-11-17T19:53:35.044Z,9.93
2022-11-17T19:56:36.766Z,9.10
2022-11-17T19:59:38.225Z,11.77
2022-11-17T20:02:40.027Z,11.73
2022-11-17T20:05:41.948Z,12.97
2022-11-17T20:08:43.830Z,13.03
2022-11-17T20:11:45.263Z,15.07
2022-11-17T20:14:47.263Z,15.23
2022-11-17T20:17:48.717Z,11.37
2022-11-17T20:20:50.101Z,12.27
2022-11-17T20:23:53.039Z,13.03
2022-11-17T20:26:54.491Z,11.80
2022-11-17T20:29:55.936Z,11.87
2022-11-17T20:32:57.629Z,9.57
2022-11-17T20:36:02.743Z,10.53
2022-11-17T20:39:06.687Z,8.23
2022-11-17T20:42:08.073Z,9.67
2022-11-17T20:45:09.909Z,11.10
2022-11-17T20:48:11.289Z,8.80
2022-11-17T20:51:15.090Z,9.77
2022-11-17T20:54:16.548Z,6.77
2022-11-17T20:57:18.559Z,10.23
2022-11-17T21:00:20.242Z,10.33
2022-11-17T21:03:22.971Z,9.10
2022-11-17T21:06:24.521Z,9.00
2022-11-17T21:09:26.140Z,8.13
2022-11-17T21:12:28.539Z,9.00
2022-11-17T21:15:29.949Z,6.37
2022-11-17T21:18:32.292Z,8.40
2022-11-17T21:21:34.002Z,6.73
2022-11-17T21:24:35.529Z,6.97
2022-11-17T21:27:36.915Z,6.03
2022-11-17T21:30:38.283Z,6.90
2022-11-17T21:33:40.729Z,3.80
2022-11-17T21:36:42.454Z,4.20
2022-11-17T21:39:43.865Z,3.33
2022-11-17T21:42:45.948Z,4.13
2022-11-17T21:45:47.395Z,4.67
2022-11-17T21:48:51.370Z,2.63
2022-11-17T21:51:52.771Z,4.20
2022-11-17T21:54:54.156Z,5.10
2022-11-17T21:57:56.291Z,4.13
2022-11-17T22:00:58.496Z,3.00
2022-11-17T22:04:00.399Z,3.47
2022-11-17T22:07:01.857Z,3.23
2022-11-17T22:10:03.538Z,3.70
2022-11-17T22:13:08.123Z,3.73
2022-11-17T22:16:13.999Z,2.10
2022-11-17T22:19:17.342Z,2.67
2022-11-17T22:22:18.997Z,1.90
2022-11-17T22:25:43.705Z,2.73
2022-11-17T22:28:42.350Z,2.90
2022-11-17T22:31:44.740Z,2.70
2022-11-17T22:34:46.131Z,4.57
2022-11-17T22:37:47.539Z,3.80
2022-11-17T22:40:48.947Z,2.67
2022-11-17T22:43:55.497Z,1.20
2022-11-17T22:46:56.952Z,3.00
2022-11-17T22:49:58.358Z,2.90
2022-11-17T22:53:00.811Z,3.00
2022-11-17T22:56:04.306Z,2.90
2022-11-17T22:59:05.788Z,3.30
2022-11-17T23:02:07.174Z,3.90
2022-11-17T23:05:08.750Z,4.10
2022-11-17T23:08:10.337Z,1.00
2022-11-17T23:14:33.244Z,2.90
2022-11-17T23:17:34.865Z,1.97
2022-11-17T23:20:36.648Z,2.73
2022-11-17T23:23:40.278Z,2.13
2022-11-17T23:26:42.526Z,1.93
2022-11-17T23:29:43.912Z,2.37
2022-11-17T23:32:45.302Z,5.57
2022-11-17T23:35:46.698Z,3.27
2022-11-17T23:38:49.293Z,1.77
2022-11-17T23:41:50.712Z,2.90
2022-11-17T23:44:52.160Z,5.30
2022-11-17T23:47:53.584Z,4.67
2022-11-17T23:50:55.083Z,2.90
2022-11-17T23:54:01.097Z,5.37
2022-11-17T23:57:02.685Z,4.77
